Crown Princess — ZCDM6 — position and weather

sailwx.info

Track history (hours):
 
Tides and Currents Weather Stations Pressure Air Temp Water Temp Dewpoint Dewpoint Depression Visibility Wind Speed Wind Dir Waves Ship Positions

Crown Princess

Last reported at 2016-Dec-05 04:34 UTC. Time now 2016-Dec-05 04:34 UTC.
Position N 33°02' W 117°59'.

Type: Ship. MMSI: 310500000.

Date/timePositionNaut miles runAvg speedWind from/ knotsBaromVisibWave heightAir tempDewpointWater temp
2016-Dec-05 04:34N 33°02' W 117°59'1716.6
2016-Dec-05 03:34N 33°18' W 118°06'1515.0
2016-Dec-05 02:33N 33°32' W 118°12'1111.4
2016-Dec-05 01:33N 33°43' W 118°15'2 2.4
2016-Dec-05 00:31N 33°45' W 118°17'0 0.0
2016-Dec-04 23:31N 33°45' W 118°17'0 0.0
2016-Dec-04 22:31N 33°45' W 118°17'0 0.0
2016-Dec-04 21:30N 33°45' W 118°17'0 0.0
2016-Dec-04 20:21N 33°45' W 118°17'0 0.0
2016-Dec-04 18:23N 33°45' W 118°17'0 0.0
2016-Dec-04 17:31N 33°45' W 118°17'0 0.0
2016-Dec-04 16:31N 33°45' W 118°17'0 0.0
2016-Dec-04 15:34N 33°45' W 118°17'0 0.0
2016-Dec-04 14:18N 33°45' W 118°17'3 3.5
2016-Dec-04 13:33N 33°43' W 118°15'9 9.4
2016-Dec-04 12:33N 33°35' W 118°09'1211.5
2016-Dec-04 11:33N 33°24' W 118°05'1010.5
2016-Dec-04 10:33N 33°14' W 118°00'1010.4
2016-Dec-04 09:33N 33°04' W 117°56'7 7.1
2016-Dec-04 08:33N 32°58' W 118°01'1010.1
2016-Dec-04 07:34N 33°02' W 118°12'1010.3
2016-Dec-04 06:33N 33°06' W 118°23'1010.0
2016-Dec-04 05:33N 33°11' W 118°34'10 9.8
2016-Dec-04 04:33N 33°14' W 118°45'10 9.8
2016-Dec-04 03:34N 33°09' W 118°55'1110.9
2016-Dec-04 02:33N 33°02' W 119°05'4511.3
2016-Dec-03 22:33N 32°29' W 119°41'9 9.0
2016-Dec-03 21:33N 32°20' W 119°41'71 7.5
2016-Dec-03 12:00N 31°42' W 118°30'65 2.6 030 / 221018.810.8 16.0 3.417.0
2016-Dec-02 11:07N 32°02' W 117°17'712.3
2016-Dec-02 10:33N 32°07' W 117°24'1211.7
2016-Dec-02 09:33N 32°17' W 117°32'1211.9
2016-Dec-02 08:33N 32°28' W 117°36'1211.6
2016-Dec-02 07:33N 32°38' W 117°41'1211.7
2016-Dec-02 06:33N 32°49' W 117°48'1211.8
2016-Dec-02 05:33N 32°59' W 117°54'1211.5
2016-Dec-02 04:33N 33°10' W 118°01'3 4.5
2016-Dec-02 04:00N 33°12' W 118°00'1022.9 360 / 41005.2 16.011.416.0
2016-Dec-02 03:33N 33°20' W 118°07'1211.7
2016-Dec-02 02:33N 33°31' W 118°12'1111.2
2016-Dec-02 01:33N 33°42' W 118°15'3 1.0
2016-Dec-01 22:30N 33°45' W 118°17'0 0.0
2016-Dec-01 21:32N 33°45' W 118°17'3 0.4
2016-Dec-01 13:27N 33°42' W 118°15'910.4
2016-Dec-01 12:33N 33°34' W 118°09'1212.4
2016-Dec-01 11:33N 33°23' W 118°04'1413.6
2016-Dec-01 10:34N 33°10' W 117°58'1414.1
2016-Dec-01 09:34N 32°57' W 117°52'1313.4
2016-Dec-01 08:33N 32°45' W 117°44'1313.0
2016-Dec-01 07:33N 32°33' W 117°38'1212.1
2016-Dec-01 06:33N 32°23' W 117°30'1212.0
2016-Dec-01 05:33N 32°15' W 117°19'14 9.2
2016-Dec-01 04:00N 32°06' W 117°06'919.5 330 / 141016.5 16.0 7.617.0
2016-Dec-01 03:33N 31°59' W 117°00'1110.2
2016-Dec-01 02:31N 31°53' W 116°50'73 3.6
2016-Nov-30 06:00N 31°00' W 117°48'1712.1 010 / 101018.4 17.012.519.0
2016-Nov-30 04:33N 31°03' W 118°08'9 9.5
2016-Nov-30 03:33N 31°13' W 118°09'1010.2
2016-Nov-30 02:33N 31°23' W 118°06'1010.4
2016-Nov-30 01:33N 31°33' W 118°04'1010.0
2016-Nov-30 00:33N 31°43' W 118°01'10 9.7
2016-Nov-29 23:33N 31°52' W 117°58'10 9.8
2016-Nov-29 22:33N 32°02' W 117°56'1010.2
2016-Nov-29 21:33N 32°12' W 117°54'10 9.9
2016-Nov-29 20:33N 32°21' W 117°51'10 9.6
2016-Nov-29 19:33N 32°31' W 117°49'9 9.2
2016-Nov-29 18:33N 32°40' W 117°48'10 9.7
2016-Nov-29 17:33N 32°49' W 117°52'10 9.6
2016-Nov-29 16:33N 32°58' W 117°57'10 9.8
2016-Nov-29 15:33N 33°07' W 118°01'10 9.9
2016-Nov-29 14:33N 33°16' W 118°05'1010.5
2016-Nov-29 13:33N 33°26' W 118°09'10 9.5
2016-Nov-29 12:33N 33°34' W 118°15'1110.2
2016-Nov-29 11:32N 33°39' W 118°27'1110.1
2016-Nov-29 10:29N 33°44' W 118°38'39 9.8
2016-Nov-29 06:29N 34°03' W 119°19'1110.1
2016-Nov-29 05:26N 34°06' W 119°31'9 9.1
2016-Nov-29 04:23N 34°11' W 119°41'910.3
2016-Nov-29 03:32N 34°20' W 119°41'916.2
2016-Nov-29 03:00N 34°12' W 119°36'12 0.8 340 / 111012.0 16.0 4.315.0
2016-Nov-28 12:06N 34°23' W 119°41'710.3
2016-Nov-28 11:27N 34°16' W 119°41'9 8.6
2016-Nov-28 10:24N 34°09' W 119°35'18 9.6
2016-Nov-28 08:33N 34°04' W 119°14'54 9.0
2016-Nov-28 02:34N 33°40' W 118°16'3 0.2
2016-Nov-27 13:33N 33°41' W 118°14'1211.6
2016-Nov-27 12:33N 33°31' W 118°07'1818.2
2016-Nov-27 11:33N 33°15' W 117°59'2020.2
2016-Nov-27 10:33N 32°56' W 117°49'2019.9
2016-Nov-27 09:33N 32°38' W 117°40'2020.0
2016-Nov-27 08:33N 32°19' W 117°33'11019.7
2016-Nov-27 03:00N 30°36' W 116°48'46619.4 290 / 241007.8 17.011.119.0
2016-Nov-26 03:00N 24°06' W 112°00'   310 / 61019.2 27.025.621.0
Track history (hours):
 
Tides and Currents Weather Stations Pressure Air Temp Water Temp Dewpoint Dewpoint Depression Visibility Wind Speed Wind Dir Waves Ship Positions

Crown Princess

Last reported at 2016-Dec-05 04:34 UTC. Time now 2016-Dec-05 04:34 UTC.
Position N 33°02' W 117°59'.

Type: Ship. MMSI: 310500000.

Date/timePositionNaut miles runAvg speedWind from/ knotsBaromVisibWave heightAir tempDewpointWater temp
2016-Dec-05 04:34N 33°02' W 117°59'1716.6
2016-Dec-05 03:34N 33°18' W 118°06'1515.0
2016-Dec-05 02:33N 33°32' W 118°12'1111.4
2016-Dec-05 01:33N 33°43' W 118°15'2 2.4
2016-Dec-05 00:31N 33°45' W 118°17'0 0.0
2016-Dec-04 23:31N 33°45' W 118°17'0 0.0
2016-Dec-04 22:31N 33°45' W 118°17'0 0.0
2016-Dec-04 21:30N 33°45' W 118°17'0 0.0
2016-Dec-04 20:21N 33°45' W 118°17'0 0.0
2016-Dec-04 18:23N 33°45' W 118°17'0 0.0
2016-Dec-04 17:31N 33°45' W 118°17'0 0.0
2016-Dec-04 16:31N 33°45' W 118°17'0 0.0
2016-Dec-04 15:34N 33°45' W 118°17'0 0.0
2016-Dec-04 14:18N 33°45' W 118°17'3 3.5
2016-Dec-04 13:33N 33°43' W 118°15'9 9.4
2016-Dec-04 12:33N 33°35' W 118°09'1211.5
2016-Dec-04 11:33N 33°24' W 118°05'1010.5
2016-Dec-04 10:33N 33°14' W 118°00'1010.4
2016-Dec-04 09:33N 33°04' W 117°56'7 7.1
2016-Dec-04 08:33N 32°58' W 118°01'1010.1
2016-Dec-04 07:34N 33°02' W 118°12'1010.3
2016-Dec-04 06:33N 33°06' W 118°23'1010.0
2016-Dec-04 05:33N 33°11' W 118°34'10 9.8
2016-Dec-04 04:33N 33°14' W 118°45'10 9.8
2016-Dec-04 03:34N 33°09' W 118°55'1110.9
2016-Dec-04 02:33N 33°02' W 119°05'4511.3
2016-Dec-03 22:33N 32°29' W 119°41'9 9.0
2016-Dec-03 21:33N 32°20' W 119°41'71 7.5
2016-Dec-03 12:00N 31°42' W 118°30'65 2.6 030 / 221018.810.8 16.0 3.417.0
2016-Dec-02 11:07N 32°02' W 117°17'712.3
2016-Dec-02 10:33N 32°07' W 117°24'1211.7
2016-Dec-02 09:33N 32°17' W 117°32'1211.9
2016-Dec-02 08:33N 32°28' W 117°36'1211.6
2016-Dec-02 07:33N 32°38' W 117°41'1211.7
2016-Dec-02 06:33N 32°49' W 117°48'1211.8
2016-Dec-02 05:33N 32°59' W 117°54'1211.5
2016-Dec-02 04:33N 33°10' W 118°01'3 4.5
2016-Dec-02 04:00N 33°12' W 118°00'1022.9 360 / 41005.2 16.011.416.0
2016-Dec-02 03:33N 33°20' W 118°07'1211.7
2016-Dec-02 02:33N 33°31' W 118°12'1111.2
2016-Dec-02 01:33N 33°42' W 118°15'3 1.0
2016-Dec-01 22:30N 33°45' W 118°17'0 0.0
2016-Dec-01 21:32N 33°45' W 118°17'3 0.4
2016-Dec-01 13:27N 33°42' W 118°15'910.4
2016-Dec-01 12:33N 33°34' W 118°09'1212.4
2016-Dec-01 11:33N 33°23' W 118°04'1413.6
2016-Dec-01 10:34N 33°10' W 117°58'1414.1
2016-Dec-01 09:34N 32°57' W 117°52'1313.4
2016-Dec-01 08:33N 32°45' W 117°44'1313.0
2016-Dec-01 07:33N 32°33' W 117°38'1212.1
2016-Dec-01 06:33N 32°23' W 117°30'1212.0
2016-Dec-01 05:33N 32°15' W 117°19'14 9.2
2016-Dec-01 04:00N 32°06' W 117°06'919.5 330 / 141016.5 16.0 7.617.0
2016-Dec-01 03:33N 31°59' W 117°00'1110.2
2016-Dec-01 02:31N 31°53' W 116°50'73 3.6
2016-Nov-30 06:00N 31°00' W 117°48'1712.1 010 / 101018.4 17.012.519.0
2016-Nov-30 04:33N 31°03' W 118°08'9 9.5
2016-Nov-30 03:33N 31°13' W 118°09'1010.2
2016-Nov-30 02:33N 31°23' W 118°06'1010.4
2016-Nov-30 01:33N 31°33' W 118°04'1010.0
2016-Nov-30 00:33N 31°43' W 118°01'10 9.7
2016-Nov-29 23:33N 31°52' W 117°58'10 9.8
2016-Nov-29 22:33N 32°02' W 117°56'1010.2
2016-Nov-29 21:33N 32°12' W 117°54'10 9.9
2016-Nov-29 20:33N 32°21' W 117°51'10 9.6
2016-Nov-29 19:33N 32°31' W 117°49'9 9.2
2016-Nov-29 18:33N 32°40' W 117°48'10 9.7
2016-Nov-29 17:33N 32°49' W 117°52'10 9.6
2016-Nov-29 16:33N 32°58' W 117°57'10 9.8
2016-Nov-29 15:33N 33°07' W 118°01'10 9.9
2016-Nov-29 14:33N 33°16' W 118°05'1010.5
2016-Nov-29 13:33N 33°26' W 118°09'10 9.5
2016-Nov-29 12:33N 33°34' W 118°15'1110.2
2016-Nov-29 11:32N 33°39' W 118°27'1110.1
2016-Nov-29 10:29N 33°44' W 118°38'39 9.8
2016-Nov-29 06:29N 34°03' W 119°19'1110.1
2016-Nov-29 05:26N 34°06' W 119°31'9 9.1
2016-Nov-29 04:23N 34°11' W 119°41'910.3
2016-Nov-29 03:32N 34°20' W 119°41'916.2
2016-Nov-29 03:00N 34°12' W 119°36'12 0.8 340 / 111012.0 16.0 4.315.0
2016-Nov-28 12:06N 34°23' W 119°41'710.3
2016-Nov-28 11:27N 34°16' W 119°41'9 8.6
2016-Nov-28 10:24N 34°09' W 119°35'18 9.6
2016-Nov-28 08:33N 34°04' W 119°14'54 9.0
2016-Nov-28 02:34N 33°40' W 118°16'3 0.2
2016-Nov-27 13:33N 33°41' W 118°14'1211.6
2016-Nov-27 12:33N 33°31' W 118°07'1818.2
2016-Nov-27 11:33N 33°15' W 117°59'2020.2
2016-Nov-27 10:33N 32°56' W 117°49'2019.9
2016-Nov-27 09:33N 32°38' W 117°40'2020.0
2016-Nov-27 08:33N 32°19' W 117°33'11019.7
2016-Nov-27 03:00N 30°36' W 116°48'46619.4 290 / 241007.8 17.011.119.0
2016-Nov-26 03:00N 24°06' W 112°00'   310 / 61019.2 27.025.621.0

Dump ship's entire track history